Cinderella 1 — SBLK — position and weather

sailwx.info

Track history (hours):
 
Tides and Currents Weather Stations Pressure Air Temp Water Temp Dewpoint Dewpoint Depression Visibility Wind Speed Wind Dir Waves Ship Positions

Cinderella 1

Last reported at 2016-Sep-25 00:33 UTC. Time now 2016-Sep-25 03:45 UTC.
Position N 59°20' E 018°05'.

Length 42 m; draft 1.1 m.

Type: Passenger vessel. MMSI: 265524530.

Date/timePositionNaut miles runAvg speedWind from/ knotsBaromVisibWave heightAir tempDewpointWater temp
2016-Sep-25 00:33N 59°20' E 018°05'0 0.0
2016-Sep-24 22:33N 59°20' E 018°05'0 0.0
2016-Sep-24 21:33N 59°20' E 018°05'0 0.0
2016-Sep-24 19:33N 59°20' E 018°05'0 0.0
2016-Sep-24 18:33N 59°20' E 018°05'0 0.0
2016-Sep-24 17:33N 59°20' E 018°05'0 0.0
2016-Sep-24 16:33N 59°20' E 018°05'0 0.0
2016-Sep-24 14:33N 59°20' E 018°05'0 0.0
2016-Sep-24 01:33N 59°20' E 018°05'0 0.0
2016-Sep-24 00:34N 59°20' E 018°05'0 0.1
2016-Sep-23 15:33N 59°20' E 018°05'0 0.2
2016-Sep-23 13:33N 59°20' E 018°05'0 0.0
2016-Sep-23 09:33N 59°20' E 018°05'0 0.0
2016-Sep-23 06:33N 59°20' E 018°05'0 0.0
2016-Sep-23 04:33N 59°20' E 018°05'0 0.0
2016-Sep-23 03:33N 59°20' E 018°05'0 0.0
2016-Sep-23 02:33N 59°20' E 018°05'0 0.0
2016-Sep-23 01:34N 59°20' E 018°05'0 0.0
2016-Sep-23 00:34N 59°20' E 018°05'0 0.0
2016-Sep-22 23:34N 59°20' E 018°05'0 0.0
2016-Sep-22 20:33N 59°20' E 018°05'0 0.0
2016-Sep-22 12:33N 59°20' E 018°05'0 0.0
2016-Sep-22 04:33N 59°20' E 018°05'0 0.0
2016-Sep-22 03:34N 59°20' E 018°05'0 0.0
2016-Sep-22 00:34N 59°20' E 018°05'0 0.0
2016-Sep-21 23:34N 59°20' E 018°05'0 0.0
2016-Sep-21 22:34N 59°20' E 018°05'0 0.0
2016-Sep-21 19:33N 59°20' E 018°05'0 0.0
2016-Sep-21 16:34N 59°20' E 018°05'0 0.0
2016-Sep-21 09:33N 59°20' E 018°05'0 0.0
2016-Sep-21 08:34N 59°20' E 018°05'0 0.0
2016-Sep-21 05:34N 59°20' E 018°05'0 0.0
2016-Sep-21 03:34N 59°20' E 018°05'0 0.0
2016-Sep-21 02:34N 59°20' E 018°05'0 0.0
2016-Sep-20 17:34N 59°20' E 018°05'0 0.0
2016-Sep-20 14:33N 59°20' E 018°05'0 0.0
2016-Sep-20 13:33N 59°20' E 018°05'0 0.0
2016-Sep-20 10:33N 59°20' E 018°05'0 0.0
2016-Sep-20 08:33N 59°20' E 018°05'0 0.0
2016-Sep-20 07:33N 59°20' E 018°05'0 0.0
2016-Sep-20 06:33N 59°20' E 018°05'0 0.0
2016-Sep-20 02:33N 59°20' E 018°05'0 0.0
2016-Sep-19 23:33N 59°20' E 018°05'0 0.0
2016-Sep-19 19:33N 59°20' E 018°05'0 0.0
2016-Sep-19 18:33N 59°20' E 018°05'0 0.0
2016-Sep-19 16:33N 59°20' E 018°05'0 0.0
2016-Sep-19 14:33N 59°20' E 018°05'0 0.0
2016-Sep-19 13:33N 59°20' E 018°05'0 0.0
2016-Sep-19 12:33N 59°20' E 018°05'0 0.0
2016-Sep-19 11:33N 59°20' E 018°05'0 0.0
2016-Sep-19 09:33N 59°20' E 018°05'0 0.0
2016-Sep-19 07:33N 59°20' E 018°05'0 0.0
2016-Sep-19 06:33N 59°20' E 018°05'0 0.0
2016-Sep-19 03:33N 59°20' E 018°05'0 0.0
2016-Sep-19 02:33N 59°20' E 018°05'0 0.0
2016-Sep-19 00:33N 59°20' E 018°05'0 0.0
2016-Sep-18 19:33N 59°20' E 018°05'12 2.7
2016-Sep-18 15:06N 59°26' E 018°25'712.4
2016-Sep-18 14:33N 59°22' E 018°15'6 0.5
2016-Sep-18 02:33N 59°20' E 018°05'0 0.0
2016-Sep-18 01:33N 59°20' E 018°05'0 0.0
2016-Sep-18 00:33N 59°20' E 018°05'0 0.0
2016-Sep-17 22:33N 59°20' E 018°05'0 0.0
2016-Sep-17 21:33N 59°20' E 018°05'0 0.0
2016-Sep-17 20:33N 59°20' E 018°05'0 0.0
2016-Sep-17 19:16N 59°20' E 018°05'1 0.2
2016-Sep-17 13:33N 59°19' E 018°06'12 2.7
2016-Sep-17 09:04N 59°26' E 018°25'611.6
2016-Sep-17 08:33N 59°22' E 018°17'7 6.6
2016-Sep-17 07:34N 59°20' E 018°05'0 0.0
2016-Sep-17 05:33N 59°20' E 018°05'0 0.0
2016-Sep-17 04:33N 59°20' E 018°05'0 0.0
2016-Sep-17 00:33N 59°20' E 018°05'0 0.1
2016-Sep-16 15:33N 59°20' E 018°05'0 0.1
2016-Sep-16 09:34N 59°20' E 018°05'0 0.0
2016-Sep-15 20:04N 59°20' E 018°05'0 0.0
2016-Sep-15 04:34N 59°20' E 018°05'0 0.0
2016-Sep-15 03:33N 59°20' E 018°05'0 0.0
2016-Sep-15 01:34N 59°20' E 018°05'  
Track history (hours):
 
Tides and Currents Weather Stations Pressure Air Temp Water Temp Dewpoint Dewpoint Depression Visibility Wind Speed Wind Dir Waves Ship Positions

Cinderella 1

Last reported at 2016-Sep-25 00:33 UTC. Time now 2016-Sep-25 03:45 UTC.
Position N 59°20' E 018°05'.

Length 42 m; draft 1.1 m.

Type: Passenger vessel. MMSI: 265524530.

Date/timePositionNaut miles runAvg speedWind from/ knotsBaromVisibWave heightAir tempDewpointWater temp
2016-Sep-25 00:33N 59°20' E 018°05'0 0.0
2016-Sep-24 22:33N 59°20' E 018°05'0 0.0
2016-Sep-24 21:33N 59°20' E 018°05'0 0.0
2016-Sep-24 19:33N 59°20' E 018°05'0 0.0
2016-Sep-24 18:33N 59°20' E 018°05'0 0.0
2016-Sep-24 17:33N 59°20' E 018°05'0 0.0
2016-Sep-24 16:33N 59°20' E 018°05'0 0.0
2016-Sep-24 14:33N 59°20' E 018°05'0 0.0
2016-Sep-24 01:33N 59°20' E 018°05'0 0.0
2016-Sep-24 00:34N 59°20' E 018°05'0 0.1
2016-Sep-23 15:33N 59°20' E 018°05'0 0.2
2016-Sep-23 13:33N 59°20' E 018°05'0 0.0
2016-Sep-23 09:33N 59°20' E 018°05'0 0.0
2016-Sep-23 06:33N 59°20' E 018°05'0 0.0
2016-Sep-23 04:33N 59°20' E 018°05'0 0.0
2016-Sep-23 03:33N 59°20' E 018°05'0 0.0
2016-Sep-23 02:33N 59°20' E 018°05'0 0.0
2016-Sep-23 01:34N 59°20' E 018°05'0 0.0
2016-Sep-23 00:34N 59°20' E 018°05'0 0.0
2016-Sep-22 23:34N 59°20' E 018°05'0 0.0
2016-Sep-22 20:33N 59°20' E 018°05'0 0.0
2016-Sep-22 12:33N 59°20' E 018°05'0 0.0
2016-Sep-22 04:33N 59°20' E 018°05'0 0.0
2016-Sep-22 03:34N 59°20' E 018°05'0 0.0
2016-Sep-22 00:34N 59°20' E 018°05'0 0.0
2016-Sep-21 23:34N 59°20' E 018°05'0 0.0
2016-Sep-21 22:34N 59°20' E 018°05'0 0.0
2016-Sep-21 19:33N 59°20' E 018°05'0 0.0
2016-Sep-21 16:34N 59°20' E 018°05'0 0.0
2016-Sep-21 09:33N 59°20' E 018°05'0 0.0
2016-Sep-21 08:34N 59°20' E 018°05'0 0.0
2016-Sep-21 05:34N 59°20' E 018°05'0 0.0
2016-Sep-21 03:34N 59°20' E 018°05'0 0.0
2016-Sep-21 02:34N 59°20' E 018°05'0 0.0
2016-Sep-20 17:34N 59°20' E 018°05'0 0.0
2016-Sep-20 14:33N 59°20' E 018°05'0 0.0
2016-Sep-20 13:33N 59°20' E 018°05'0 0.0
2016-Sep-20 10:33N 59°20' E 018°05'0 0.0
2016-Sep-20 08:33N 59°20' E 018°05'0 0.0
2016-Sep-20 07:33N 59°20' E 018°05'0 0.0
2016-Sep-20 06:33N 59°20' E 018°05'0 0.0
2016-Sep-20 02:33N 59°20' E 018°05'0 0.0
2016-Sep-19 23:33N 59°20' E 018°05'0 0.0
2016-Sep-19 19:33N 59°20' E 018°05'0 0.0
2016-Sep-19 18:33N 59°20' E 018°05'0 0.0
2016-Sep-19 16:33N 59°20' E 018°05'0 0.0
2016-Sep-19 14:33N 59°20' E 018°05'0 0.0
2016-Sep-19 13:33N 59°20' E 018°05'0 0.0
2016-Sep-19 12:33N 59°20' E 018°05'0 0.0
2016-Sep-19 11:33N 59°20' E 018°05'0 0.0
2016-Sep-19 09:33N 59°20' E 018°05'0 0.0
2016-Sep-19 07:33N 59°20' E 018°05'0 0.0
2016-Sep-19 06:33N 59°20' E 018°05'0 0.0
2016-Sep-19 03:33N 59°20' E 018°05'0 0.0
2016-Sep-19 02:33N 59°20' E 018°05'0 0.0
2016-Sep-19 00:33N 59°20' E 018°05'0 0.0
2016-Sep-18 19:33N 59°20' E 018°05'12 2.7
2016-Sep-18 15:06N 59°26' E 018°25'712.4
2016-Sep-18 14:33N 59°22' E 018°15'6 0.5
2016-Sep-18 02:33N 59°20' E 018°05'0 0.0
2016-Sep-18 01:33N 59°20' E 018°05'0 0.0
2016-Sep-18 00:33N 59°20' E 018°05'0 0.0
2016-Sep-17 22:33N 59°20' E 018°05'0 0.0
2016-Sep-17 21:33N 59°20' E 018°05'0 0.0
2016-Sep-17 20:33N 59°20' E 018°05'0 0.0
2016-Sep-17 19:16N 59°20' E 018°05'1 0.2
2016-Sep-17 13:33N 59°19' E 018°06'12 2.7
2016-Sep-17 09:04N 59°26' E 018°25'611.6
2016-Sep-17 08:33N 59°22' E 018°17'7 6.6
2016-Sep-17 07:34N 59°20' E 018°05'0 0.0
2016-Sep-17 05:33N 59°20' E 018°05'0 0.0
2016-Sep-17 04:33N 59°20' E 018°05'0 0.0
2016-Sep-17 00:33N 59°20' E 018°05'0 0.1
2016-Sep-16 15:33N 59°20' E 018°05'0 0.1
2016-Sep-16 09:34N 59°20' E 018°05'0 0.0
2016-Sep-15 20:04N 59°20' E 018°05'0 0.0
2016-Sep-15 04:34N 59°20' E 018°05'0 0.0
2016-Sep-15 03:33N 59°20' E 018°05'0 0.0
2016-Sep-15 01:34N 59°20' E 018°05'  

Dump ship's entire track history